createdAt,value
2018-10-17T00:00:58.863Z,101177.33
2018-10-17T00:03:27.395Z,101178.25
2018-10-17T00:05:56.448Z,101176.53
2018-10-17T00:08:24.969Z,101174.84
2018-10-17T00:10:53.489Z,101177.97
2018-10-17T00:13:22.048Z,101172.28
2018-10-17T00:15:50.482Z,101177.61
2018-10-17T00:18:18.959Z,101172.84
2018-10-17T00:20:47.861Z,101171.64
2018-10-17T00:23:17.083Z,101169.96
2018-10-17T00:25:45.500Z,101172.20
2018-10-17T00:28:14.165Z,101170.92
2018-10-17T00:30:43.183Z,101164.43
2018-10-17T00:33:11.615Z,101160.98
2018-10-17T00:35:40.279Z,101159.75
2018-10-17T00:38:08.736Z,101163.31
2018-10-17T00:40:37.422Z,101165.16
2018-10-17T00:43:06.056Z,101163.03
2018-10-17T00:45:34.542Z,101164.92
2018-10-17T00:48:03.193Z,101162.35
2018-10-17T00:50:31.697Z,101154.91
2018-10-17T00:53:00.181Z,101157.62
2018-10-17T00:55:28.898Z,101155.94
2018-10-17T00:57:57.445Z,101149.80
2018-10-17T01:00:26.086Z,101152.02
2018-10-17T01:02:54.643Z,101145.08
2018-10-17T01:05:23.687Z,101151.38
2018-10-17T01:07:52.102Z,101148.73
2018-10-17T01:10:20.760Z,101153.09
2018-10-17T01:12:49.313Z,101159.31
2018-10-17T01:15:17.932Z,101155.34
2018-10-17T01:17:46.364Z,101158.50
2018-10-17T01:20:14.849Z,101162.95
2018-10-17T01:22:43.454Z,101158.22
2018-10-17T01:25:12.095Z,101156.09
2018-10-17T01:27:40.721Z,101156.17
2018-10-17T01:30:09.229Z,101162.38
2018-10-17T01:32:37.865Z,101163.41
2018-10-17T01:35:07.571Z,101159.49
2018-10-17T01:37:35.947Z,101157.33
2018-10-17T01:40:06.559Z,101157.84
2018-10-17T01:42:35.045Z,101162.73
2018-10-17T01:45:03.780Z,101155.72
2018-10-17T01:47:32.228Z,101160.56
2018-10-17T01:50:00.757Z,101155.72
2018-10-17T01:52:29.328Z,101146.95
2018-10-17T01:54:58.006Z,101153.55
2018-10-17T01:57:27.049Z,101150.06
2018-10-17T01:59:56.347Z,101142.25
2018-10-17T02:02:24.895Z,101145.37
2018-10-17T02:04:53.493Z,101142.41
2018-10-17T02:07:21.863Z,101144.21
2018-10-17T02:09:50.548Z,101139.41
2018-10-17T02:12:19.023Z,101144.28
2018-10-17T02:14:47.463Z,101141.24
2018-10-17T02:17:16.068Z,101136.91
2018-10-17T02:19:44.636Z,101135.67
2018-10-17T02:22:13.764Z,101136.98
2018-10-17T02:24:42.218Z,101135.67
2018-10-17T02:27:10.740Z,101136.62
2018-10-17T02:29:39.888Z,101138.06
2018-10-17T02:32:08.423Z,101135.97
2018-10-17T02:34:49.029Z,101137.30
2018-10-17T02:37:17.519Z,101145.33
2018-10-17T02:39:46.067Z,101141.77
2018-10-17T02:42:14.411Z,101141.80
2018-10-17T02:44:43.488Z,101139.64
2018-10-17T02:47:12.239Z,101147.61
2018-10-17T02:49:41.180Z,101147.24
2018-10-17T02:52:09.833Z,101140.78
2018-10-17T02:54:38.288Z,101139.58
2018-10-17T02:57:06.890Z,101142.69
2018-10-17T02:59:35.486Z,101153.26
2018-10-17T03:02:04.073Z,101150.36
2018-10-17T03:04:32.530Z,101148.23
2018-10-17T03:07:01.033Z,101150.91
2018-10-17T03:09:29.724Z,101144.41
2018-10-17T03:11:58.157Z,101150.14
2018-10-17T03:14:26.747Z,101152.89
2018-10-17T03:16:55.258Z,101152.01
2018-10-17T03:19:23.945Z,101152.48
2018-10-17T03:21:52.598Z,101158.20
2018-10-17T03:24:21.846Z,101166.53
2018-10-17T03:26:50.440Z,101160.84
2018-10-17T03:29:19.372Z,101160.44
2018-10-17T03:31:47.851Z,101160.84
2018-10-17T03:34:16.906Z,101165.31
2018-10-17T03:36:45.378Z,101167.55
2018-10-17T03:39:14.011Z,101165.35
2018-10-17T03:41:42.458Z,101165.42
2018-10-17T03:44:11.148Z,101165.02
2018-10-17T03:46:39.824Z,101169.89
2018-10-17T03:49:08.759Z,101172.97
2018-10-17T03:51:37.247Z,101173.52
2018-10-17T03:54:06.000Z,101174.95
2018-10-17T03:56:34.652Z,101172.41
2018-10-17T03:59:03.286Z,101164.52
2018-10-17T04:01:37.139Z,101169.40
2018-10-17T04:04:05.725Z,101173.87
2018-10-17T04:06:34.626Z,101175.29
2018-10-17T04:09:03.354Z,101176.64
2018-10-17T04:11:31.796Z,101174.45
2018-10-17T04:14:00.341Z,101171.80
2018-10-17T04:16:28.918Z,101176.23
2018-10-17T04:18:57.489Z,101186.42
2018-10-17T04:21:26.068Z,101195.76
2018-10-17T04:23:54.505Z,101208.61
2018-10-17T04:26:23.308Z,101198.49
2018-10-17T04:28:51.880Z,101194.13
2018-10-17T04:31:20.647Z,101199.47
2018-10-17T04:33:49.232Z,101205.09
2018-10-17T04:36:18.062Z,101194.97
2018-10-17T04:38:46.767Z,101199.72
2018-10-17T04:41:15.554Z,101201.00
2018-10-17T04:43:44.305Z,101209.02
2018-10-17T04:46:12.814Z,101202.05
2018-10-17T04:48:41.328Z,101193.31
2018-10-17T04:51:09.885Z,101198.09
2018-10-17T04:53:38.415Z,101199.41
2018-10-17T04:56:07.164Z,101198.05
2018-10-17T04:58:35.746Z,101199.87
2018-10-17T05:01:04.173Z,101195.64
2018-10-17T05:03:32.652Z,101197.03
2018-10-17T05:06:01.441Z,101201.58
2018-10-17T05:08:29.904Z,101200.67
2018-10-17T05:10:58.489Z,101199.73
2018-10-17T05:13:26.959Z,101197.09
2018-10-17T05:15:55.623Z,101195.36
2018-10-17T05:18:24.043Z,101194.55
2018-10-17T05:20:52.634Z,101197.25
2018-10-17T05:23:22.305Z,101198.12
2018-10-17T05:25:54.888Z,101204.25
2018-10-17T05:28:23.479Z,101203.84
2018-10-17T05:30:51.940Z,101199.48
2018-10-17T05:33:20.449Z,101196.00
2018-10-17T05:35:48.997Z,101197.34
2018-10-17T05:38:18.061Z,101200.86
2018-10-17T05:40:47.090Z,101202.66
2018-10-17T05:43:15.770Z,101195.24
2018-10-17T05:45:44.387Z,101200.08
2018-10-17T05:48:12.943Z,101199.17
2018-10-17T05:50:42.363Z,101198.25
2018-10-17T05:53:10.994Z,101203.13
2018-10-17T05:55:39.685Z,101202.24
2018-10-17T05:58:08.240Z,101204.88
2018-10-17T06:00:36.788Z,101207.52
2018-10-17T06:03:05.748Z,101205.39
2018-10-17T06:05:34.205Z,101205.86
2018-10-17T06:08:03.679Z,101201.02
2018-10-17T06:10:32.237Z,101208.52
2018-10-17T06:13:00.743Z,101210.69
2018-10-17T06:15:29.148Z,101217.38
2018-10-17T06:17:57.732Z,101224.04
2018-10-17T06:20:26.302Z,101225.29
2018-10-17T06:22:54.816Z,101220.92
2018-10-17T06:25:23.451Z,101223.97
2018-10-17T06:27:52.147Z,101222.25
2018-10-17T06:30:20.746Z,101224.45
2018-10-17T06:32:50.393Z,101222.66
2018-10-17T06:35:18.999Z,101224.86
2018-10-17T06:37:48.433Z,101218.35
2018-10-17T06:40:17.035Z,101221.43
2018-10-17T06:42:45.560Z,101224.98
2018-10-17T06:45:14.130Z,101224.50
2018-10-17T06:47:46.323Z,101218.82
2018-10-17T06:50:14.801Z,101223.66
2018-10-17T06:52:43.443Z,101217.50
2018-10-17T06:55:12.047Z,101218.82
2018-10-17T06:57:40.509Z,101223.19
2018-10-17T07:00:09.868Z,101222.72
2018-10-17T07:02:38.330Z,101219.58
2018-10-17T07:05:07.791Z,101223.03
2018-10-17T07:07:36.216Z,101217.28
2018-10-17T07:10:05.662Z,101226.48
2018-10-17T07:12:34.969Z,101233.49
2018-10-17T07:15:03.637Z,101237.01
2018-10-17T07:17:32.265Z,101222.91
2018-10-17T07:20:00.865Z,101224.23
2018-10-17T07:22:29.476Z,101221.59
2018-10-17T07:24:58.175Z,101225.05
2018-10-17T07:27:26.868Z,101224.10
2018-10-17T07:29:55.401Z,101223.13
2018-10-17T07:32:23.750Z,101226.14
2018-10-17T07:34:52.297Z,101222.59
2018-10-17T07:37:20.836Z,101225.64
2018-10-17T07:39:49.500Z,101227.74
2018-10-17T07:42:18.716Z,101226.90
2018-10-17T07:44:47.353Z,101233.43
2018-10-17T07:47:16.047Z,101230.69
2018-10-17T07:49:44.673Z,101237.67
2018-10-17T07:52:13.646Z,101237.73
2018-10-17T07:54:42.198Z,101241.22
2018-10-17T07:57:10.968Z,101239.48
2018-10-17T07:59:39.717Z,101238.98
2018-10-17T08:02:08.243Z,101240.78
2018-10-17T08:04:37.028Z,101237.20
2018-10-17T08:07:06.556Z,101242.82
2018-10-17T08:09:36.453Z,101254.91
2018-10-17T08:12:05.409Z,101254.78
2018-10-17T08:14:34.730Z,101259.42
2018-10-17T08:17:03.235Z,101267.09
2018-10-17T08:19:31.738Z,101261.27
2018-10-17T08:22:00.305Z,101262.48
2018-10-17T08:24:29.158Z,101260.77
2018-10-17T08:26:58.067Z,101261.13
2018-10-17T08:29:26.705Z,101259.71
2018-10-17T08:31:56.038Z,101267.80
2018-10-17T08:34:24.536Z,101270.21
2018-10-17T08:36:53.360Z,101266.18
2018-10-17T08:39:21.601Z,101266.11
2018-10-17T08:41:50.148Z,101268.65
2018-10-17T08:44:19.097Z,101271.02
2018-10-17T08:46:47.655Z,101265.45
2018-10-17T08:49:16.400Z,101266.48
2018-10-17T08:51:44.856Z,101264.47
2018-10-17T08:54:13.512Z,101268.14
2018-10-17T08:56:42.088Z,101264.70
2018-10-17T08:59:10.696Z,101263.87
2018-10-17T09:01:39.216Z,101259.72
2018-10-17T09:04:08.056Z,101258.98
2018-10-17T09:06:36.541Z,101256.58
2018-10-17T09:09:09.298Z,101264.69
2018-10-17T09:11:38.401Z,101266.83
2018-10-17T09:14:06.997Z,101274.33
2018-10-17T09:16:35.486Z,101275.77
2018-10-17T09:19:04.052Z,101273.24
2018-10-17T09:21:32.760Z,101275.80
2018-10-17T09:24:01.469Z,101278.20
2018-10-17T09:26:30.331Z,101276.39
2018-10-17T09:28:59.202Z,101276.73
2018-10-17T09:31:28.967Z,101277.58
2018-10-17T09:33:57.473Z,101286.38
2018-10-17T09:36:26.123Z,101285.73
2018-10-17T09:38:54.879Z,101280.03
2018-10-17T09:41:23.605Z,101276.88
2018-10-17T09:43:52.692Z,101277.23
2018-10-17T09:46:21.452Z,101278.14
2018-10-17T09:48:50.776Z,101279.01
2018-10-17T09:51:19.409Z,101279.77
2018-10-17T09:53:48.032Z,101283.03
2018-10-17T09:56:16.537Z,101281.89
2018-10-17T09:58:45.091Z,101273.86
2018-10-17T10:01:16.609Z,101279.27
2018-10-17T10:03:45.201Z,101271.40
2018-10-17T10:06:13.908Z,101273.91
2018-10-17T10:08:42.812Z,101270.02
2018-10-17T10:11:11.441Z,101268.04
2018-10-17T10:13:40.041Z,101270.59
2018-10-17T10:16:08.568Z,101269.50
2018-10-17T10:18:37.353Z,101265.80
2018-10-17T10:21:06.744Z,101264.70
2018-10-17T10:23:35.309Z,101266.17
2018-10-17T10:26:03.664Z,101262.38
2018-10-17T10:28:32.403Z,101265.80
2018-10-17T10:31:00.873Z,101261.32
2018-10-17T10:33:29.532Z,101259.05
2018-10-17T10:35:58.389Z,101259.05
2018-10-17T10:38:26.899Z,101260.94
2018-10-17T10:40:55.602Z,101256.16
2018-10-17T10:43:24.108Z,101252.15
2018-10-17T10:45:52.613Z,101250.91
2018-10-17T10:48:21.107Z,101253.14
2018-10-17T10:50:50.014Z,101253.14
2018-10-17T10:53:18.487Z,101245.02
2018-10-17T10:55:47.168Z,101241.87
2018-10-17T10:58:16.491Z,101245.54
2018-10-17T11:00:45.257Z,101244.88
2018-10-17T11:03:13.905Z,101243.80
2018-10-17T11:05:42.472Z,101236.30
2018-10-17T11:08:11.133Z,101233.37
2018-10-17T11:10:39.780Z,101236.56
2018-10-17T11:13:08.628Z,101239.88
2018-10-17T11:15:38.133Z,101233.90
2018-10-17T11:18:06.671Z,101230.75
2018-10-17T11:20:35.142Z,101226.21
2018-10-17T11:23:03.863Z,101219.93
2018-10-17T11:25:32.538Z,101213.91
2018-10-17T11:28:01.415Z,101216.44
2018-10-17T11:30:30.381Z,101215.22
2018-10-17T11:32:59.974Z,101216.33
2018-10-17T11:35:29.675Z,101212.86
2018-10-17T11:37:59.068Z,101211.02
2018-10-17T11:40:27.458Z,101213.91
2018-10-17T11:42:55.986Z,101215.70
2018-10-17T11:45:24.696Z,101216.72
2018-10-17T11:47:53.430Z,101210.41
2018-10-17T11:50:22.067Z,101206.73
2018-10-17T11:52:51.147Z,101200.48
2018-10-17T11:55:19.837Z,101207.93
2018-10-17T11:57:48.515Z,101201.47
2018-10-17T12:00:17.252Z,101200.86
2018-10-17T12:02:46.491Z,101194.91
2018-10-17T12:05:16.757Z,101196.99
2018-10-17T12:07:45.312Z,101195.70
2018-10-17T12:10:14.657Z,101195.89
2018-10-17T12:12:43.270Z,101198.63
2018-10-17T12:15:13.468Z,101188.16
2018-10-17T12:17:42.410Z,101187.66
2018-10-17T12:20:12.886Z,101181.88
2018-10-17T12:22:42.126Z,101179.75
2018-10-17T12:25:11.747Z,101173.00
2018-10-17T12:27:40.481Z,101177.80
2018-10-17T12:30:12.058Z,101169.88
2018-10-17T12:32:40.825Z,101169.59
2018-10-17T12:35:09.738Z,101172.58
2018-10-17T12:37:38.468Z,101168.70
2018-10-17T12:40:08.642Z,101163.11
2018-10-17T12:42:37.435Z,101156.98
2018-10-17T12:45:07.078Z,101159.81
2018-10-17T12:47:35.990Z,101156.33
2018-10-17T12:50:04.785Z,101161.28
2018-10-17T12:52:33.318Z,101165.94
2018-10-17T12:55:01.883Z,101159.28
2018-10-17T12:57:31.288Z,101162.16
2018-10-17T13:00:00.869Z,101164.25
2018-10-17T13:02:30.116Z,101160.86
2018-10-17T13:04:58.743Z,101159.66
2018-10-17T13:07:27.481Z,101163.45
2018-10-17T13:09:56.104Z,101154.98
2018-10-17T13:12:24.708Z,101155.30
2018-10-17T13:14:53.356Z,101148.65
2018-10-17T13:17:21.878Z,101151.35
2018-10-17T13:19:50.707Z,101149.77
2018-10-17T13:22:19.371Z,101149.61
2018-10-17T13:24:48.094Z,101141.91
2018-10-17T13:27:16.944Z,101150.52
2018-10-17T13:29:45.565Z,101149.80
2018-10-17T13:32:14.012Z,101150.37
2018-10-17T13:34:43.600Z,101148.34
2018-10-17T13:37:12.271Z,101145.30
2018-10-17T13:39:40.733Z,101142.13
2018-10-17T13:42:10.016Z,101139.63
2018-10-17T13:44:39.227Z,101146.97
2018-10-17T13:47:08.147Z,101142.74
2018-10-17T13:49:37.147Z,101140.83
2018-10-17T13:52:05.843Z,101137.55
2018-10-17T13:54:34.651Z,101139.50
2018-10-17T13:57:03.367Z,101141.61
2018-10-17T13:59:31.930Z,101142.95
2018-10-17T14:02:00.557Z,101144.69
2018-10-17T14:04:29.496Z,101141.13
2018-10-17T14:06:58.268Z,101144.39
2018-10-17T14:09:27.078Z,101146.17
2018-10-17T14:11:55.843Z,101147.56
2018-10-17T14:14:24.765Z,101151.13
2018-10-17T14:16:53.329Z,101147.48
2018-10-17T14:19:22.446Z,101146.28
2018-10-17T14:21:51.115Z,101142.63
2018-10-17T14:24:19.669Z,101141.68
2018-10-17T14:26:48.397Z,101142.28
2018-10-17T14:29:16.870Z,101139.17
2018-10-17T14:31:45.346Z,101141.20
2018-10-17T14:34:13.852Z,101141.03
2018-10-17T14:36:42.359Z,101138.84
2018-10-17T14:39:12.924Z,101136.89
2018-10-17T14:41:41.845Z,101140.99
2018-10-17T14:44:10.581Z,101141.48
2018-10-17T14:46:39.213Z,101140.91
2018-10-17T14:49:07.788Z,101144.44
2018-10-17T14:51:36.504Z,101141.77
2018-10-17T14:54:05.042Z,101141.47
2018-10-17T14:56:33.523Z,101141.97
2018-10-17T14:59:02.361Z,101142.80
2018-10-17T15:01:31.243Z,101144.35
2018-10-17T15:04:00.290Z,101149.90
2018-10-17T15:06:28.895Z,101150.18
2018-10-17T15:08:57.573Z,101155.44
2018-10-17T15:11:26.218Z,101153.43
2018-10-17T15:13:55.463Z,101157.06
2018-10-17T15:16:24.188Z,101153.98
2018-10-17T15:18:52.757Z,101152.85
2018-10-17T15:21:21.294Z,101157.22
2018-10-17T15:23:49.920Z,101166.09
2018-10-17T15:26:18.428Z,101162.70
2018-10-17T15:28:46.896Z,101163.91
2018-10-17T15:31:15.581Z,101162.34
2018-10-17T15:33:44.293Z,101163.64
2018-10-17T15:36:13.116Z,101168.21
2018-10-17T15:38:42.313Z,101167.45
2018-10-17T15:41:11.166Z,101163.19
2018-10-17T15:43:40.008Z,101171.08
2018-10-17T15:46:08.907Z,101173.25
2018-10-17T15:48:37.589Z,101164.86
2018-10-17T15:51:06.657Z,101171.29
2018-10-17T15:53:35.639Z,101169.80
2018-10-17T15:56:04.505Z,101176.14
2018-10-17T15:58:33.265Z,101177.17
2018-10-17T16:01:02.485Z,101176.55
2018-10-17T16:03:31.184Z,101177.09
2018-10-17T16:05:59.978Z,101180.19
2018-10-17T16:08:28.604Z,101184.08
2018-10-17T16:10:57.457Z,101186.92
2018-10-17T16:13:26.571Z,101190.08
2018-10-17T16:15:55.244Z,101196.85
2018-10-17T16:18:24.727Z,101189.49
2018-10-17T16:20:53.697Z,101199.34
2018-10-17T16:23:22.404Z,101192.47
2018-10-17T16:25:51.263Z,101206.52
2018-10-17T16:28:19.841Z,101201.30
2018-10-17T16:30:49.072Z,101202.09
2018-10-17T16:33:18.553Z,101203.68
2018-10-17T16:35:47.400Z,101205.55
2018-10-17T16:38:16.195Z,101210.39
2018-10-17T16:40:45.136Z,101215.05
2018-10-17T16:43:13.832Z,101207.19
2018-10-17T16:45:42.463Z,101214.01
2018-10-17T16:48:11.868Z,101211.96
2018-10-17T16:50:40.459Z,101222.03
2018-10-17T16:53:09.019Z,101226.86
2018-10-17T16:55:37.629Z,101233.50
2018-10-17T16:58:06.620Z,101230.77
2018-10-17T17:00:35.669Z,101235.44
2018-10-17T17:03:04.381Z,101232.45
2018-10-17T17:05:32.863Z,101232.21
2018-10-17T17:08:01.597Z,101240.00
2018-10-17T17:10:30.993Z,101236.53
2018-10-17T17:12:59.744Z,101243.66
2018-10-17T17:15:28.257Z,101250.66
2018-10-17T17:17:57.181Z,101252.55
2018-10-17T17:20:25.823Z,101247.83
2018-10-17T17:22:54.489Z,101251.53
2018-10-17T17:25:23.102Z,101251.83
2018-10-17T17:27:51.895Z,101252.91
2018-10-17T17:30:20.606Z,101256.95
2018-10-17T17:32:49.594Z,101258.03
2018-10-17T17:37:47.990Z,101265.89
2018-10-17T17:40:23.523Z,101269.13
2018-10-17T17:42:52.170Z,101270.77
2018-10-17T17:45:20.676Z,101273.13
2018-10-17T17:47:49.371Z,101278.19
2018-10-17T17:50:17.973Z,101275.77
2018-10-17T17:52:46.780Z,101286.53
2018-10-17T17:55:15.345Z,101287.70
2018-10-17T17:57:44.779Z,101288.27
2018-10-17T18:00:13.293Z,101286.67
2018-10-17T18:02:42.810Z,101295.17
2018-10-17T18:05:11.450Z,101294.16
2018-10-17T18:07:40.147Z,101295.66
2018-10-17T18:10:08.889Z,101303.09
2018-10-17T18:12:38.024Z,101297.66
2018-10-17T18:15:07.403Z,101289.70
2018-10-17T18:17:36.042Z,101290.94
2018-10-17T18:20:04.832Z,101293.41
2018-10-17T18:22:33.323Z,101293.98
2018-10-17T18:25:01.792Z,101301.19
2018-10-17T18:27:30.357Z,101307.77
2018-10-17T18:29:59.534Z,101310.81
2018-10-17T18:32:28.248Z,101316.51
2018-10-17T18:35:12.974Z,101315.13
2018-10-17T18:40:52.818Z,101320.88
2018-10-17T18:44:03.270Z,101324.02
2018-10-17T18:49:24.348Z,101327.63
2018-10-17T18:52:05.748Z,101326.87
2018-10-17T18:54:50.277Z,101335.74
2018-10-17T18:57:33.140Z,101336.47
2018-10-17T19:00:10.672Z,101335.50
2018-10-17T19:02:56.541Z,101338.67
2018-10-17T19:05:41.629Z,101344.45
2018-10-17T19:08:36.308Z,101343.38
2018-10-17T19:11:14.315Z,101345.37
2018-10-17T19:13:50.269Z,101347.62
2018-10-17T19:16:26.718Z,101352.63
2018-10-17T19:19:01.526Z,101349.98
2018-10-17T19:21:39.759Z,101353.68
2018-10-17T19:26:56.504Z,101359.97
2018-10-17T19:32:19.635Z,101360.76
2018-10-17T19:35:01.335Z,101359.44
2018-10-17T19:37:37.589Z,101370.14
2018-10-17T19:40:11.426Z,101368.97
2018-10-17T19:42:42.544Z,101372.09
2018-10-17T19:45:16.741Z,101368.97
2018-10-17T19:47:45.194Z,101369.33
2018-10-17T19:50:13.672Z,101364.15
2018-10-17T19:52:42.191Z,101370.11
2018-10-17T19:55:11.266Z,101368.76
2018-10-17T19:57:39.973Z,101370.34
2018-10-17T20:00:11.049Z,101369.53
2018-10-17T20:02:39.830Z,101377.83
2018-10-17T20:05:09.065Z,101377.87
2018-10-17T20:07:37.679Z,101379.70
2018-10-17T20:10:08.332Z,101372.46
2018-10-17T20:12:37.624Z,101378.93
2018-10-17T20:15:07.511Z,101381.31
2018-10-17T20:17:36.072Z,101383.25
2018-10-17T20:20:05.234Z,101388.58
2018-10-17T20:22:33.944Z,101392.28
2018-10-17T20:25:02.546Z,101389.37
2018-10-17T20:27:31.093Z,101387.34
2018-10-17T20:29:59.708Z,101390.16
2018-10-17T20:32:29.324Z,101394.63
2018-10-17T20:34:58.221Z,101390.36
2018-10-17T20:37:27.597Z,101391.34
2018-10-17T20:39:56.381Z,101387.01
2018-10-17T20:42:25.739Z,101390.50
2018-10-17T20:44:54.463Z,101395.45
2018-10-17T20:47:23.231Z,101397.11
2018-10-17T20:49:53.280Z,101400.66
2018-10-17T20:52:21.868Z,101400.66
2018-10-17T20:54:50.458Z,101403.00
2018-10-17T20:57:19.064Z,101404.02
2018-10-17T20:59:47.698Z,101405.34
2018-10-17T21:02:16.247Z,101408.58
2018-10-17T21:04:44.822Z,101401.50
2018-10-17T21:07:13.626Z,101404.89
2018-10-17T21:09:42.400Z,101413.80
2018-10-17T21:12:10.943Z,101418.53
2018-10-17T21:14:39.821Z,101414.55
2018-10-17T21:17:08.450Z,101419.45
2018-10-17T21:19:37.037Z,101416.78
2018-10-17T21:22:05.852Z,101422.31
2018-10-17T21:24:34.409Z,101425.42
2018-10-17T21:27:03.116Z,101429.27
2018-10-17T21:29:31.717Z,101429.03
2018-10-17T21:32:00.424Z,101425.14
2018-10-17T21:34:29.730Z,101428.12
2018-10-17T21:36:58.205Z,101435.03
2018-10-17T21:39:27.652Z,101437.19
2018-10-17T21:41:56.801Z,101431.61
2018-10-17T21:44:25.508Z,101439.94
2018-10-17T21:46:54.084Z,101444.31
2018-10-17T21:49:22.881Z,101442.08
2018-10-17T21:51:51.453Z,101442.48
2018-10-17T21:54:20.139Z,101439.32
2018-10-17T21:56:48.777Z,101435.77
2018-10-17T21:59:17.268Z,101435.62
2018-10-17T22:21:55.115Z,101443.89
2018-10-17T22:24:23.562Z,101437.13
2018-10-17T22:26:52.259Z,101436.98
2018-10-17T22:29:20.824Z,101445.90
2018-10-17T22:31:49.478Z,101444.74
2018-10-17T22:34:18.359Z,101446.14
2018-10-17T22:36:47.428Z,101447.96
2018-10-17T22:39:16.091Z,101446.86
2018-10-17T22:41:45.791Z,101449.97
2018-10-17T22:44:14.537Z,101445.59
2018-10-17T22:46:43.995Z,101444.33
2018-10-17T22:49:12.580Z,101441.48
2018-10-17T22:51:41.185Z,101445.83
2018-10-17T22:54:09.888Z,101449.60
2018-10-17T22:56:39.436Z,101456.66
2018-10-17T22:59:08.103Z,101459.41
2018-10-17T23:01:37.110Z,101467.75
2018-10-17T23:04:06.845Z,101467.42
2018-10-17T23:06:35.335Z,101465.45
2018-10-17T23:09:06.620Z,101466.48
2018-10-17T23:11:35.229Z,101463.52
2018-10-17T23:14:04.463Z,101468.38
2018-10-17T23:16:32.965Z,101470.85
2018-10-17T23:19:01.593Z,101468.63
2018-10-17T23:21:30.034Z,101471.22
2018-10-17T23:23:58.948Z,101469.22
2018-10-17T23:26:27.594Z,101466.66
2018-10-17T23:28:56.075Z,101475.23
2018-10-17T23:31:25.420Z,101473.22
2018-10-17T23:33:54.390Z,101475.42
2018-10-17T23:36:23.294Z,101469.91
2018-10-17T23:38:52.253Z,101465.88
2018-10-17T23:41:21.379Z,101466.69
2018-10-17T23:43:49.844Z,101464.22
2018-10-17T23:46:18.380Z,101468.19
2018-10-17T23:48:46.810Z,101467.37
2018-10-17T23:51:15.278Z,101468.77
2018-10-17T23:53:43.851Z,101464.41
2018-10-17T23:56:13.125Z,101469.11
2018-10-17T23:58:41.490Z,101464.39
